Arnoldsville, Georgia
Current Conditions -  °F | °C
As of 9:51 AM on Monday 22 Dec 2014 (Local Time) from KAHN Reporting Station
Haze Haze  
Wind Chill: 40°   Ceiling: 300
Heat Index: 44°   Visibility: 1.2mi
Dew Point: 43°   Wind: 7mph
Humidity: 96%   Direction: 80°E
Pressure: 30.07"   Gusts: NA
Location:  33.91°N, 83.22°W
Report Text: KAHN 221451Z 08006KT 1 1/4SM BR OVC003 07/06 A3007 RMK AO2 SLP186 T00670061 53003
Loading
Personal Weather Stations






























Interactive Weather Map New forecast layout! Learn more

10-Day Weather Forecast

Advertisements
Track Severe Weather on mobile